Time;durP1;ratioP1;P1;durP2;ratioP2;P2;SDS_P1;SDS_P2;PMS_P1;PMS_P2;Temp;Humidity;BMP_temperature;BMP_pressure;BME280_temperature;BME280_humidity;BME280_pressure;Samples;Min_cycle;Max_cycle;Signal;HPM_P1;HPM_P2
2021/05/25 00:01:23;;;;;;;13.98;7.90;;;10.60;91.70;;;;;;4957405;28;20027;-78
2021/05/25 00:03:48;;;;;;;12.73;7.90;;;10.60;91.40;;;;;;4957113;28;20023;-78
2021/05/25 00:06:14;;;;;;;14.23;8.90;;;10.50;91.50;;;;;;4957444;28;20054;-77
2021/05/25 00:08:40;;;;;;;15.43;9.50;;;10.50;91.60;;;;;;4956792;28;20051;-75
2021/05/25 00:11:05;;;;;;;12.40;7.38;;;10.50;91.80;;;;;;4957224;28;20573;-76
2021/05/25 00:13:31;;;;;;;16.38;9.27;;;10.40;91.50;;;;;;4957000;28;20118;-76
2021/05/25 00:15:56;;;;;;;18.65;9.88;;;10.40;91.50;;;;;;4957065;28;20077;-77
2021/05/25 00:18:22;;;;;;;14.82;9.50;;;10.40;91.90;;;;;;4956875;28;20344;-77
2021/05/25 00:20:49;;;;;;;13.52;8.48;;;10.40;91.90;;;;;;4989458;28;20494;-76
2021/05/25 00:23:15;;;;;;;14.38;8.52;;;10.40;91.70;;;;;;4957530;28;20027;-77
2021/05/25 00:25:40;;;;;;;16.90;10.27;;;10.30;91.80;;;;;;4957747;28;20517;-76
2021/05/25 00:28:06;;;;;;;16.13;9.15;;;10.30;92.00;;;;;;4989464;28;20023;-76
2021/05/25 00:30:32;;;;;;;12.68;7.80;;;10.40;91.90;;;;;;4957287;28;20027;-76
2021/05/25 00:32:58;;;;;;;14.68;9.45;;;10.30;91.80;;;;;;4958143;28;20050;-76
2021/05/25 00:35:25;;;;;;;14.60;9.38;;;10.40;91.70;;;;;;4982491;28;20031;-76
2021/05/25 00:37:51;;;;;;;16.38;10.10;;;10.30;91.60;;;;;;4977025;28;20122;-77
2021/05/25 00:40:17;;;;;;;12.57;9.90;;;10.30;91.60;;;;;;4960968;28;20037;-77
2021/05/25 00:42:43;;;;;;;16.83;10.90;;;10.30;91.80;;;;;;4961759;28;20487;-77
2021/05/25 00:45:10;;;;;;;14.90;9.70;;;10.30;91.90;;;;;;4963468;28;20027;-77
2021/05/25 00:47:37;;;;;;;13.98;10.40;;;10.30;91.90;;;;;;4979286;28;20030;-77
2021/05/25 00:50:11;;;;;;;13.35;9.63;;;10.30;91.90;;;;;;4964652;28;20055;-76
2021/05/25 00:52:42;;;;;;;12.18;8.70;;;10.30;91.90;;;;;;4976862;28;20027;-77
2021/05/25 00:55:11;;;;;;;11.27;8.65;;;10.20;91.60;;;;;;4961135;28;20027;-77
2021/05/25 00:57:37;;;;;;;12.68;9.25;;;10.30;91.80;;;;;;4961596;28;20023;-77
2021/05/25 01:00:05;;;;;;;13.88;10.07;;;10.30;91.80;;;;;;4960841;28;20082;-77
2021/05/25 01:02:33;;;;;;;17.70;11.50;;;10.30;91.90;;;;;;4978271;28;20027;-78
2021/05/25 01:05:00;;;;;;;15.63;9.18;;;10.30;91.90;;;;;;4978238;28;20033;-78
2021/05/25 01:07:26;;;;;;;14.85;10.05;;;10.30;91.80;;;;;;4960863;28;20175;-78
2021/05/25 01:09:54;;;;;;;14.00;8.60;;;10.30;91.50;;;;;;4960922;28;20047;-77
2021/05/25 01:12:20;;;;;;;16.70;10.73;;;10.30;91.60;;;;;;4961587;28;20030;-76
2021/05/25 01:14:52;;;;;;;13.50;9.05;;;10.30;91.80;;;;;;4993391;28;20411;-76
2021/05/25 01:17:17;;;;;;;12.57;7.55;;;10.30;91.70;;;;;;4961093;28;20470;-77
2021/05/25 01:19:43;;;;;;;12.77;8.38;;;10.30;91.40;;;;;;4960825;28;20034;-77
2021/05/25 01:22:08;;;;;;;12.98;9.15;;;10.20;91.50;;;;;;4960735;28;20082;-78
2021/05/25 01:24:34;;;;;;;13.45;7.00;;;10.20;91.40;;;;;;4960707;28;20068;-77
2021/05/25 01:27:05;;;;;;;14.32;7.57;;;10.20;91.50;;;;;;4960992;28;20027;-78
2021/05/25 01:29:32;;;;;;;11.95;6.65;;;10.20;91.40;;;;;;4961295;28;20109;-78
2021/05/25 01:31:57;;;;;;;12.98;7.30;;;10.20;91.20;;;;;;4962189;28;20038;-78
2021/05/25 01:34:23;;;;;;;7.70;5.15;;;10.10;91.30;;;;;;4961196;28;20027;-78
2021/05/25 01:36:49;;;;;;;9.98;6.38;;;10.10;91.30;;;;;;4960563;28;20481;-78
2021/05/25 01:39:15;;;;;;;7.63;4.68;;;10.10;91.60;;;;;;4960078;28;20207;-78
2021/05/25 01:41:41;;;;;;;11.20;5.68;;;10.10;91.10;;;;;;4960167;28;20031;-77
2021/05/25 01:44:07;;;;;;;8.57;4.82;;;10.00;91.20;;;;;;4959924;28;20489;-76
2021/05/25 01:46:33;;;;;;;10.63;6.20;;;10.00;91.10;;;;;;4960756;28;20097;-77
2021/05/25 01:48:59;;;;;;;10.38;5.60;;;10.00;91.20;;;;;;4960090;28;20431;-77
2021/05/25 01:51:25;;;;;;;10.63;5.35;;;9.90;91.20;;;;;;4959650;28;20023;-75
2021/05/25 01:53:50;;;;;;;10.75;5.65;;;10.00;91.20;;;;;;4960008;28;20027;-77
2021/05/25 01:56:17;;;;;;;8.68;4.68;;;9.90;91.20;;;;;;4960966;28;20026;-77
2021/05/25 01:58:43;;;;;;;7.55;3.95;;;10.00;91.10;;;;;;4959560;28;20031;-77
2021/05/25 02:01:10;;;;;;;10.25;5.05;;;9.90;91.30;;;;;;4959984;28;20035;-78
2021/05/25 02:03:37;;;;;;;8.57;4.35;;;9.90;91.00;;;;;;4959944;28;20030;-77
2021/05/25 02:06:07;;;;;;;11.45;5.22;;;9.90;91.00;;;;;;4959930;28;20118;-77
2021/05/25 02:08:33;;;;;;;;;;;9.80;90.90;;;;;;4960195;28;20050;-77
2021/05/25 02:11:01;;;;;;;9.20;5.35;;;9.80;90.80;;;;;;4960149;28;19956;-77
2021/05/25 02:13:32;;;;;;;8.02;3.88;;;9.80;91.10;;;;;;4960018;28;20034;-77
2021/05/25 02:16:03;;;;;;;6.88;3.60;;;9.70;91.00;;;;;;4976733;28;20414;-75
2021/05/25 02:18:31;;;;;;;11.77;4.78;;;9.70;90.80;;;;;;4976708;28;20117;-76
2021/05/25 02:21:00;;;;;;;7.88;4.30;;;9.70;91.20;;;;;;4960053;28;20029;-76
2021/05/25 02:23:26;;;;;;;7.03;4.43;;;9.60;91.10;;;;;;4959976;28;20033;-77
2021/05/25 02:25:53;;;;;;;9.18;3.75;;;9.70;91.10;;;;;;4960211;28;20090;-78
2021/05/25 02:28:19;;;;;;;7.82;3.35;;;9.50;90.90;;;;;;4976617;28;20055;-79
2021/05/25 02:30:45;;;;;;;7.45;3.63;;;9.50;91.00;;;;;;4970703;28;20011;-79
2021/05/25 02:33:14;;;;;;;6.28;2.88;;;9.50;90.90;;;;;;4960669;28;20485;-79
2021/05/25 02:35:40;;;;;;;7.43;3.45;;;9.50;90.90;;;;;;4959710;28;20023;-78
2021/05/25 02:38:09;;;;;;;6.40;3.05;;;9.50;90.80;;;;;;4960298;28;20109;-78
2021/05/25 02:40:35;;;;;;;5.05;2.47;;;9.50;90.90;;;;;;4960535;28;20022;-78
2021/05/25 02:43:02;;;;;;;7.55;3.60;;;9.50;90.90;;;;;;4959726;28;20039;-78
2021/05/25 02:45:28;;;;;;;6.47;3.60;;;9.50;90.90;;;;;;4977644;28;20030;-79
2021/05/25 02:47:53;;;;;;;6.80;3.75;;;9.40;90.80;;;;;;4960835;28;20023;-78
2021/05/25 02:50:20;;;;;;;11.40;4.10;;;9.40;90.90;;;;;;4978362;28;20102;-77
2021/05/25 02:52:48;;;;;;;7.43;4.28;;;9.40;91.00;;;;;;4978495;28;20022;-77
2021/05/25 02:55:16;;;;;;;6.40;2.65;;;9.40;91.00;;;;;;4963423;28;20030;-78
2021/05/25 02:57:43;;;;;;;7.88;3.50;;;9.30;91.00;;;;;;4956528;28;20026;-78
2021/05/25 03:00:18;;;;;;;6.72;2.80;;;9.30;90.90;;;;;;4983004;28;20486;-78
2021/05/25 03:02:44;;;;;;;7.20;3.28;;;9.30;91.00;;;;;;4995840;28;20034;-78
2021/05/25 03:05:11;;;;;;;6.13;2.83;;;9.20;91.10;;;;;;4978761;28;20191;-78
2021/05/25 03:07:37;;;;;;;6.75;3.35;;;9.20;91.00;;;;;;4978360;28;20188;-79
2021/05/25 03:10:08;;;;;;;8.95;4.03;;;9.10;91.10;;;;;;4995165;28;20041;-77
2021/05/25 03:12:35;;;;;;;8.38;3.53;;;9.10;91.00;;;;;;4977815;28;20030;-77
2021/05/25 03:15:21;;;;;;;7.30;3.28;;;9.10;91.10;;;;;;4978278;28;20105;-77
2021/05/25 03:17:47;;;;;;;10.25;3.75;;;9.10;91.10;;;;;;4971322;28;20103;-78
2021/05/25 03:20:16;;;;;;;8.43;3.08;;;9.00;91.00;;;;;;4978448;28;20115;-78
2021/05/25 03:22:48;;;;;;;10.73;3.88;;;9.00;91.10;;;;;;4978599;28;20061;-78
2021/05/25 03:25:15;;;;;;;9.50;3.55;;;9.00;91.10;;;;;;4978195;28;20022;-78
2021/05/25 03:27:41;;;;;;;8.40;3.17;;;9.00;91.20;;;;;;4978875;28;20027;-77
2021/05/25 03:30:09;;;;;;;9.40;3.80;;;9.00;91.20;;;;;;4998027;28;20033;-80
2021/05/25 03:35:31;;;;;;;7.72;3.38;;;8.90;91.10;;;;;;4992961;28;20034;-79
2021/05/25 03:37:57;;;;;;;8.23;3.97;;;8.90;91.10;;;;;;4978593;28;20399;-78
2021/05/25 03:40:24;;;;;;;9.07;4.07;;;8.90;91.10;;;;;;4977489;28;20030;-78
2021/05/25 03:42:51;;;;;;;9.85;4.38;;;8.80;91.10;;;;;;4977724;28;20037;-77
2021/05/25 03:45:18;;;;;;;9.10;4.10;;;8.80;91.20;;;;;;4994595;28;20062;-78
2021/05/25 03:48:02;;;;;;;9.13;3.95;;;8.80;91.30;;;;;;4977391;28;20505;-77
2021/05/25 03:50:28;;;;;;;10.07;3.67;;;8.80;91.10;;;;;;4977404;28;20030;-78
2021/05/25 03:52:56;;;;;;;7.35;3.55;;;8.80;91.30;;;;;;4995481;28;20030;-78
2021/05/25 03:55:36;;;;;;;9.98;3.88;;;8.80;91.30;;;;;;4976594;28;20037;-76
2021/05/25 04:00:48;;;;;;;8.90;4.22;;;8.80;91.30;;;;;;4994336;28;20077;-78
2021/05/25 04:03:13;;;;;;;8.70;3.60;;;8.90;91.40;;;;;;4976845;28;20022;-76
2021/05/25 04:05:39;;;;;;;10.43;4.03;;;8.90;91.40;;;;;;4994333;28;20029;-77
2021/05/25 04:08:05;;;;;;;10.40;4.65;;;8.90;91.30;;;;;;4976251;28;20050;-77
2021/05/25 04:10:31;;;;;;;10.20;4.45;;;9.00;91.30;;;;;;4977013;28;20034;-78
2021/05/25 04:12:57;;;;;;;11.07;3.78;;;9.00;91.30;;;;;;4976817;28;20105;-78
2021/05/25 04:15:24;;;;;;;8.35;4.00;;;9.00;91.20;;;;;;4977069;28;20022;-77
2021/05/25 04:17:52;;;;;;;8.40;4.00;;;9.00;91.30;;;;;;4977836;28;20529;-78
2021/05/25 04:20:18;;;;;;;10.30;4.00;;;9.00;91.10;;;;;;4977743;28;20050;-78
2021/05/25 04:22:44;;;;;;;8.77;4.13;;;9.10;91.20;;;;;;4980845;28;20066;-77
2021/05/25 04:25:10;;;;;;;8.80;4.15;;;9.10;91.20;;;;;;4991575;28;20022;-77
2021/05/25 04:27:36;;;;;;;8.25;3.75;;;9.10;91.20;;;;;;4977862;28;20076;-77
2021/05/25 04:30:04;;;;;;;9.57;3.70;;;9.10;91.20;;;;;;4976959;28;20586;-77
2021/05/25 04:32:29;;;;;;;12.13;3.97;;;9.10;91.20;;;;;;4977069;28;20116;-77
2021/05/25 04:34:55;;;;;;;7.93;4.28;;;9.10;91.40;;;;;;4977886;28;20026;-77
2021/05/25 04:37:20;;;;;;;9.50;4.45;;;9.10;91.20;;;;;;4977079;28;20110;-76
2021/05/25 04:39:46;;;;;;;10.20;5.50;;;9.10;91.20;;;;;;4977066;28;20054;-77
2021/05/25 04:42:11;;;;;;;9.43;5.25;;;9.10;91.10;;;;;;4976355;28;20447;-78
2021/05/25 04:44:37;;;;;;;11.43;5.60;;;9.10;91.30;;;;;;4977772;28;20483;-77
2021/05/25 04:47:03;;;;;;;8.98;5.28;;;9.10;91.20;;;;;;4977479;28;20103;-78
2021/05/25 04:49:28;;;;;;;15.40;6.28;;;9.20;91.20;;;;;;4995340;28;20025;-77
2021/05/25 04:51:54;;;;;;;9.90;5.85;;;9.20;91.20;;;;;;4977708;28;20042;-76
2021/05/25 04:54:19;;;;;;;9.85;5.93;;;9.20;91.30;;;;;;4977360;28;20545;-76
2021/05/25 04:56:45;;;;;;;12.82;5.60;;;9.30;91.20;;;;;;4983925;28;20023;-77
2021/05/25 04:59:10;;;;;;;11.30;6.20;;;9.30;91.30;;;;;;4996753;28;20023;-78
2021/05/25 05:01:36;;;;;;;14.30;7.03;;;9.30;91.20;;;;;;4976880;28;20363;-77
2021/05/25 05:04:02;;;;;;;13.15;6.03;;;9.30;91.10;;;;;;4975878;28;20035;-77
2021/05/25 05:06:27;;;;;;;20.80;10.18;;;9.30;91.10;;;;;;4975794;28;20019;-76
2021/05/25 05:08:53;;;;;;;13.23;7.70;;;9.40;91.00;;;;;;4976001;28;20704;-77
2021/05/25 05:11:19;;;;;;;21.58;11.43;;;9.40;90.90;;;;;;4975676;28;20037;-77
2021/05/25 05:13:44;;;;;;;25.63;11.75;;;9.40;91.00;;;;;;4975767;28;20370;-77
2021/05/25 05:16:12;;;;;;;24.13;11.85;;;9.40;90.90;;;;;;4975651;28;20022;-77
2021/05/25 05:18:38;;;;;;;11.85;7.55;;;9.50;91.10;;;;;;4976059;28;20057;-78
2021/05/25 05:21:04;;;;;;;27.60;13.38;;;9.50;90.70;;;;;;4993784;28;20462;-78
2021/05/25 05:23:29;;;;;;;25.98;12.32;;;9.50;90.70;;;;;;4977949;28;20015;-77
2021/05/25 05:25:58;;;;;;;11.50;6.63;;;9.50;90.70;;;;;;4977235;28;20081;-77
2021/05/25 05:28:24;;;;;;;13.25;8.07;;;9.50;90.70;;;;;;4980403;28;20050;-78
2021/05/25 05:30:50;;;;;;;20.60;10.48;;;9.60;90.80;;;;;;4981743;28;20026;-77
2021/05/25 05:33:15;;;;;;;12.43;6.85;;;9.60;90.70;;;;;;4982005;28;20076;-77
2021/05/25 05:35:41;;;;;;;14.40;7.82;;;9.70;90.30;;;;;;4981340;28;20022;-77
2021/05/25 05:38:07;;;;;;;16.65;10.48;;;9.60;90.30;;;;;;4998956;28;20466;-78
2021/05/25 05:40:34;;;;;;;12.98;7.13;;;9.70;90.40;;;;;;4980840;28;20026;-78
2021/05/25 05:43:00;;;;;;;13.38;6.70;;;9.70;90.50;;;;;;4979854;28;20096;-77
2021/05/25 05:45:26;;;;;;;11.45;7.03;;;9.70;90.40;;;;;;4980160;28;20124;-77
2021/05/25 05:47:54;;;;;;;11.70;6.32;;;9.70;90.40;;;;;;4978724;28;20029;-78
2021/05/25 05:50:20;;;;;;;9.88;6.00;;;9.80;90.30;;;;;;4979683;28;20069;-78
2021/05/25 05:52:46;;;;;;;9.70;6.50;;;9.80;90.10;;;;;;4978858;28;20058;-77
2021/05/25 05:55:12;;;;;;;9.75;5.80;;;9.90;90.10;;;;;;4978949;28;20023;-76
2021/05/25 05:57:38;;;;;;;16.80;7.80;;;9.90;90.00;;;;;;4979433;28;20041;-77
2021/05/25 06:00:07;;;;;;;8.10;5.93;;;9.90;90.40;;;;;;4979385;28;20026;-76
2021/05/25 06:02:33;;;;;;;15.27;8.85;;;9.90;90.00;;;;;;4979686;28;20483;-77
2021/05/25 06:04:59;;;;;;;10.43;7.95;;;10.00;90.00;;;;;;4998086;28;20030;-78
2021/05/25 06:07:25;;;;;;;12.95;9.13;;;10.10;89.80;;;;;;4980803;28;20050;-77
2021/05/25 06:09:51;;;;;;;14.60;8.38;;;10.00;89.20;;;;;;4981826;28;20084;-78
2021/05/25 06:12:17;;;;;;;10.77;7.72;;;10.10;89.50;;;;;;4980286;28;20031;-78
2021/05/25 06:14:43;;;;;;;13.32;9.18;;;10.00;89.10;;;;;;4980117;28;20046;-77
2021/05/25 06:17:09;;;;;;;13.80;8.63;;;10.00;88.60;;;;;;4985069;28;20030;-78
2021/05/25 06:19:34;;;;;;;12.15;8.65;;;10.00;89.00;;;;;;4984022;28;20026;-79
2021/05/25 06:22:00;;;;;;;11.55;8.30;;;10.10;89.10;;;;;;4978324;28;20039;-78
2021/05/25 06:24:25;;;;;;;11.63;8.70;;;10.10;89.30;;;;;;4978290;28;20028;-75
2021/05/25 06:26:51;;;;;;;12.60;9.38;;;10.20;88.30;;;;;;4978617;28;20583;-77
2021/05/25 06:29:16;;;;;;;13.82;9.85;;;10.20;88.00;;;;;;4978506;28;20370;-77
2021/05/25 06:31:42;;;;;;;14.15;9.57;;;10.10;87.70;;;;;;4995671;28;20437;-77
2021/05/25 06:34:08;;;;;;;12.15;9.73;;;10.10;88.30;;;;;;4977812;28;20034;-77
2021/05/25 06:36:33;;;;;;;17.02;10.60;;;10.10;88.50;;;;;;4978676;28;20019;-76
2021/05/25 06:38:59;;;;;;;12.80;9.85;;;10.20;88.20;;;;;;4977754;28;20138;-75
2021/05/25 06:41:24;;;;;;;13.98;11.18;;;10.10;87.80;;;;;;4995137;28;20467;-77
2021/05/25 06:43:50;;;;;;;13.10;10.60;;;10.20;88.30;;;;;;4978234;28;20026;-77
2021/05/25 06:46:16;;;;;;;16.92;12.43;;;10.20;87.60;;;;;;4978535;28;20023;-76
2021/05/25 06:48:41;;;;;;;14.30;10.45;;;10.30;87.90;;;;;;4978022;28;20165;-76
2021/05/25 06:51:07;;;;;;;15.85;10.38;;;10.30;87.90;;;;;;4977915;28;20022;-77
2021/05/25 06:53:36;;;;;;;14.60;11.55;;;10.40;87.80;;;;;;4978179;28;20023;-76
2021/05/25 06:56:03;;;;;;;13.75;10.10;;;10.40;87.70;;;;;;4996380;28;20470;-76
2021/05/25 06:58:29;;;;;;;13.73;10.85;;;10.40;87.90;;;;;;4978656;28;20050;-77
2021/05/25 07:00:54;;;;;;;10.82;8.07;;;10.40;87.80;;;;;;4979323;28;20034;-76
2021/05/25 07:03:20;;;;;;;15.52;12.02;;;10.40;87.50;;;;;;5003481;28;20025;-75
2021/05/25 07:05:46;;;;;;;17.30;10.50;;;10.50;87.40;;;;;;4984740;28;20022;-76
2021/05/25 07:08:11;;;;;;;15.25;11.18;;;10.60;87.40;;;;;;4976860;28;20049;-76
2021/05/25 07:10:37;;;;;;;17.30;12.15;;;10.60;87.10;;;;;;4995346;28;20026;-77
2021/05/25 07:13:03;;;;;;;12.75;11.32;;;10.70;86.70;;;;;;4977633;28;20025;-75
2021/05/25 07:15:28;;;;;;;12.32;10.20;;;10.80;86.90;;;;;;4978077;28;20090;-77
2021/05/25 07:17:57;;;;;;;14.00;11.45;;;10.90;86.40;;;;;;4977825;28;20080;-77
2021/05/25 07:20:24;;;;;;;13.75;11.13;;;11.00;85.80;;;;;;4977325;28;20093;-77
2021/05/25 07:22:54;;;;;;;13.02;10.95;;;11.10;85.40;;;;;;4994167;28;20463;-76
2021/05/25 07:25:25;;;;;;;13.73;9.87;;;11.10;85.90;;;;;;4994145;28;20088;-77
2021/05/25 07:27:52;;;;;;;14.18;9.90;;;11.20;85.40;;;;;;4977428;28;20035;-77
2021/05/25 07:30:18;;;;;;;14.18;11.45;;;11.20;85.50;;;;;;4978627;28;20084;-77
2021/05/25 07:32:44;;;;;;;14.55;12.05;;;11.20;85.00;;;;;;4977901;28;20125;-78
2021/05/25 07:35:11;;;;;;;18.42;12.05;;;11.20;85.30;;;;;;4964880;28;20134;-77
2021/05/25 07:37:38;;;;;;;16.58;14.65;;;11.10;85.70;;;;;;4999861;28;20029;-77
2021/05/25 07:40:05;;;;;;;16.00;12.45;;;11.10;86.70;;;;;;4967373;28;20027;-74
2021/05/25 07:42:30;;;;;;;18.23;13.90;;;11.10;85.70;;;;;;4972368;28;20042;-75
2021/05/25 07:44:57;;;;;;;16.05;13.02;;;11.10;86.00;;;;;;4970444;28;20491;-76
2021/05/25 07:47:22;;;;;;;20.58;15.02;;;11.20;85.80;;;;;;4976126;28;20033;-76
2021/05/25 07:49:48;;;;;;;15.15;13.18;;;11.20;86.10;;;;;;4976886;28;20386;-77
2021/05/25 07:52:15;;;;;;;15.10;12.65;;;11.20;86.40;;;;;;4977489;28;20061;-78
2021/05/25 07:54:41;;;;;;;16.15;13.02;;;11.30;85.30;;;;;;4980382;28;20121;-78
2021/05/25 07:57:07;;;;;;;13.88;11.88;;;11.30;85.40;;;;;;4977522;28;20113;-77
2021/05/25 07:59:32;;;;;;;14.60;10.32;;;11.40;85.50;;;;;;4994504;28;20061;-77
2021/05/25 08:01:59;;;;;;;14.57;11.38;;;11.50;85.00;;;;;;4976940;28;20027;-78
2021/05/25 08:04:25;;;;;;;11.65;9.13;;;11.60;85.00;;;;;;4976799;28;20097;-78
2021/05/25 08:06:50;;;;;;;15.85;10.88;;;11.80;83.90;;;;;;4977709;28;20049;-78
2021/05/25 08:09:16;;;;;;;13.07;10.02;;;11.80;84.20;;;;;;4979007;28;20026;-77
2021/05/25 08:11:43;;;;;;;13.20;10.25;;;11.80;83.90;;;;;;4997062;28;20056;-79
2021/05/25 08:14:09;;;;;;;10.68;9.27;;;12.00;85.10;;;;;;4979444;28;20038;-79
2021/05/25 08:16:36;;;;;;;9.82;7.22;;;12.40;83.90;;;;;;4976787;28;20054;-78
2021/05/25 08:19:26;;;;;;;10.93;8.85;;;12.70;81.50;;;;;;4976555;28;20030;-78
2021/05/25 08:21:52;;;;;;;13.10;8.77;;;12.80;79.70;;;;;;4970107;28;20026;-78
2021/05/25 08:24:17;;;;;;;10.48;8.60;;;12.90;79.70;;;;;;4993777;28;20041;-77
2021/05/25 08:26:43;;;;;;;10.18;8.18;;;12.80;80.30;;;;;;4977891;28;20076;-76
2021/05/25 08:29:08;;;;;;;9.75;8.27;;;12.80;80.90;;;;;;4995137;28;20030;-78
2021/05/25 08:31:34;;;;;;;8.70;7.22;;;13.00;80.90;;;;;;4977071;28;20022;-78
2021/05/25 08:34:01;;;;;;;11.20;6.72;;;13.30;81.00;;;;;;4976259;28;20385;-77
2021/05/25 08:36:34;;;;;;;10.63;7.40;;;13.60;77.50;;;;;;4976535;28;20121;-77
2021/05/25 08:39:00;;;;;;;7.50;5.80;;;14.00;77.90;;;;;;4994010;28;20022;-77
2021/05/25 08:41:26;;;;;;;8.65;5.35;;;14.20;75.40;;;;;;4976769;28;20410;-77
2021/05/25 08:43:52;;;;;;;9.38;4.10;;;14.40;75.10;;;;;;4977460;28;20022;-78
2021/05/25 08:46:18;;;;;;;7.00;3.45;;;14.20;73.80;;;;;;4977911;28;20521;-78
2021/05/25 08:48:43;;;;;;;8.23;3.00;;;13.90;74.00;;;;;;4977119;28;20419;-76
2021/05/25 08:51:10;;;;;;;6.00;2.63;;;13.70;74.60;;;;;;4977623;28;20027;-77
2021/05/25 08:53:36;;;;;;;7.20;3.25;;;13.60;75.20;;;;;;4978469;28;20425;-78
2021/05/25 08:56:03;;;;;;;10.50;3.20;;;13.80;74.40;;;;;;4976951;28;20018;-78
2021/05/25 08:58:29;;;;;;;8.95;2.22;;;14.10;74.00;;;;;;4977057;28;20023;-79
2021/05/25 09:00:58;;;;;;;6.28;2.45;;;14.30;72.20;;;;;;4977802;28;20030;-76
2021/05/25 09:03:24;;;;;;;6.18;2.30;;;14.60;70.80;;;;;;4980694;28;20023;-78
2021/05/25 09:05:55;;;;;;;7.25;3.17;;;14.70;70.20;;;;;;4981394;28;20029;-77
2021/05/25 09:08:21;;;;;;;9.38;3.03;;;14.70;71.60;;;;;;4985906;28;20057;-76
2021/05/25 09:10:48;;;;;;;8.07;2.47;;;14.70;71.10;;;;;;4997798;28;20026;-78
2021/05/25 09:13:22;;;;;;;4.15;1.67;;;14.50;70.00;;;;;;4980055;28;20027;-77
2021/05/25 09:15:53;;;;;;;7.45;1.48;;;14.10;68.30;;;;;;4979806;28;20121;-76
2021/05/25 09:18:25;;;;;;;6.22;1.33;;;13.60;69.40;;;;;;4997695;28;20501;-77
2021/05/25 09:20:59;;;;;;;5.32;1.88;;;13.00;71.80;;;;;;4979539;28;20026;-77
2021/05/25 09:23:34;;;;;;;2.90;1.05;;;12.70;73.40;;;;;;4980189;28;20034;-77
2021/05/25 09:26:07;;;;;;;7.30;1.42;;;12.50;75.90;;;;;;4980010;28;20121;-76
2021/05/25 09:28:54;;;;;;;4.38;1.80;;;12.40;77.40;;;;;;4980669;28;20046;-84
2021/05/25 09:31:43;;;;;;;6.13;1.35;;;12.20;79.40;;;;;;4981480;28;20030;-77
2021/05/25 09:34:23;;;;;;;3.42;1.42;;;12.10;81.10;;;;;;4981512;28;20033;-78
2021/05/25 09:36:56;;;;;;;4.07;1.30;;;12.00;80.90;;;;;;4984030;28;20033;-83
2021/05/25 09:39:21;;;;;;;5.95;1.85;;;11.90;81.50;;;;;;4984886;28;20026;-83
2021/05/25 09:41:57;;;;;;;4.40;2.00;;;12.00;83.00;;;;;;4984779;28;20046;-84
2021/05/25 09:44:23;;;;;;;5.18;2.33;;;12.00;83.20;;;;;;4985204;28;20053;-85
2021/05/25 09:46:49;;;;;;;6.75;1.85;;;12.00;84.90;;;;;;4983388;28;20034;-81
2021/05/25 09:49:15;;;;;;;6.40;2.15;;;11.90;86.10;;;;;;4981493;28;20033;-81
2021/05/25 09:51:45;;;;;;;5.82;2.15;;;12.00;86.90;;;;;;4982178;28;20386;-83
2021/05/25 09:54:24;;;;;;;6.15;2.05;;;12.10;85.00;;;;;;4983395;28;20022;-84
2021/05/25 09:56:59;;;;;;;7.38;2.15;;;12.20;86.60;;;;;;4997583;28;20076;-82
2021/05/25 09:59:33;;;;;;;7.15;2.78;;;12.30;85.00;;;;;;4999820;28;20028;-83
2021/05/25 10:02:20;;;;;;;7.38;2.80;;;12.40;84.70;;;;;;5002918;28;20030;-87
2021/05/25 10:05:01;;;;;;;6.53;2.17;;;12.60;84.30;;;;;;5002773;28;20028;-83
2021/05/25 10:07:28;;;;;;;7.55;2.60;;;12.70;84.10;;;;;;5000065;28;20057;-82
2021/05/25 10:09:56;;;;;;;8.68;2.78;;;12.80;84.40;;;;;;5001438;28;20022;-82
2021/05/25 10:12:31;;;;;;;10.07;2.92;;;12.90;83.00;;;;;;4999098;28;20341;-84
2021/05/25 10:14:58;;;;;;;13.00;3.00;;;13.00;83.30;;;;;;5000370;28;20022;-84
2021/05/25 10:20:04;;;;;;;8.85;3.50;;;13.30;83.10;;;;;;5018469;28;20026;-81
2021/05/25 10:22:30;;;;;;;12.63;4.25;;;13.50;81.70;;;;;;4983344;28;20057;-81
2021/05/25 10:24:57;;;;;;;9.98;4.07;;;13.60;81.40;;;;;;4998906;28;20049;-82
2021/05/25 10:27:22;;;;;;;14.70;5.65;;;13.50;81.30;;;;;;5000684;28;20465;-81
2021/05/25 10:29:48;;;;;;;11.80;4.85;;;13.40;81.80;;;;;;5001308;28;20088;-83
2021/05/25 10:32:25;;;;;;;12.20;4.82;;;13.40;82.30;;;;;;4999993;28;20021;-84
2021/05/25 10:34:52;;;;;;;11.98;6.07;;;13.30;82.10;;;;;;5003521;28;20022;-87
2021/05/25 10:37:19;;;;;;;12.40;4.15;;;13.20;81.90;;;;;;5000119;28;20496;-83
2021/05/25 10:39:46;;;;;;;10.35;3.20;;;13.00;82.10;;;;;;4999809;28;20061;-83
2021/05/25 10:42:29;;;;;;;10.75;3.28;;;12.80;77.70;;;;;;5000726;28;20034;-86
2021/05/25 10:44:59;;;;;;;12.85;4.10;;;12.60;79.90;;;;;;5000650;28;20017;-83
2021/05/25 10:47:50;;;;;;;12.20;4.15;;;12.50;79.60;;;;;;5001511;28;20018;-84
2021/05/25 10:53:13;;;;;;;12.52;4.28;;;12.30;82.00;;;;;;5020100;28;20496;-86
2021/05/25 10:55:42;;;;;;;8.73;3.92;;;12.30;82.40;;;;;;5006620;28;20041;-86
2021/05/25 10:58:17;;;;;;;7.55;3.40;;;12.50;82.80;;;;;;4999550;28;20481;-82
2021/05/25 11:00:43;;;;;;;10.48;3.97;;;12.60;82.20;;;;;;4998426;28;20030;-81
2021/05/25 11:03:11;;;;;;;8.95;3.50;;;12.90;83.50;;;;;;5014808;28;20034;-79
2021/05/25 11:05:40;;;;;;;7.60;3.53;;;13.40;80.40;;;;;;4998878;28;20025;-81
2021/05/25 11:08:11;;;;;;;8.35;2.85;;;14.00;78.90;;;;;;4999002;28;20145;-84
2021/05/25 11:10:37;;;;;;;6.65;2.17;;;14.50;74.90;;;;;;5000172;28;20054;-82
2021/05/25 11:13:18;;;;;;;7.95;2.65;;;15.00;71.80;;;;;;5014688;28;20030;-80
2021/05/25 11:16:03;;;;;;;7.45;1.90;;;15.30;68.00;;;;;;5003391;28;20060;-82
2021/05/25 11:18:36;;;;;;;8.63;2.47;;;15.30;69.90;;;;;;4998451;28;20487;-83
2021/05/25 11:23:39;;;;;;;6.78;2.20;;;15.90;66.60;;;;;;5016045;28;20034;-81
2021/05/25 11:26:04;;;;;;;5.22;1.80;;;16.40;60.00;;;;;;4998320;28;20018;-82
2021/05/25 11:29:08;;;;;;;8.57;2.05;;;16.40;59.90;;;;;;4999796;28;20030;-81
2021/05/25 11:31:39;;;;;;;6.30;2.17;;;16.40;61.40;;;;;;5000900;28;20025;-82
2021/05/25 11:34:05;;;;;;;8.65;1.65;;;16.60;63.40;;;;;;5001171;28;20041;-82
2021/05/25 11:36:31;;;;;;;8.00;2.10;;;16.80;62.30;;;;;;4998001;28;20033;-80
2021/05/25 11:38:57;;;;;;;8.40;1.42;;;16.80;57.50;;;;;;4997851;28;20022;-81
2021/05/25 11:41:23;;;;;;;5.00;1.67;;;16.90;62.60;;;;;;4998875;28;20030;-82
2021/05/25 11:44:00;;;;;;;5.90;2.00;;;16.90;58.90;;;;;;5000689;28;20032;-83
2021/05/25 11:46:38;;;;;;;3.25;1.30;;;16.80;57.80;;;;;;5000785;28;20018;-83
2021/05/25 11:49:08;;;;;;;9.43;2.03;;;16.40;60.60;;;;;;5002320;28;20053;-83
2021/05/25 11:51:33;;;;;;;7.55;2.30;;;16.20;60.00;;;;;;5016466;28;20413;-82
2021/05/25 11:54:15;;;;;;;8.65;1.83;;;16.00;59.80;;;;;;4998700;28;20022;-84
2021/05/25 11:56:52;;;;;;;17.35;4.15;;;15.80;59.00;;;;;;4999516;28;20489;-82
2021/05/25 11:59:20;;;;;;;21.75;7.28;;;15.80;63.40;;;;;;5017401;28;20022;-81
2021/05/25 12:01:51;;;;;;;7.03;2.00;;;15.80;61.70;;;;;;5001559;28;20386;-82
2021/05/25 12:04:21;;;;;;;5.43;1.65;;;15.70;60.00;;;;;;4998733;28;20026;-85
2021/05/25 12:06:56;;;;;;;8.60;1.50;;;15.80;62.60;;;;;;5002590;28;20037;-82
2021/05/25 12:09:28;;;;;;;4.18;1.50;;;16.30;57.80;;;;;;5000103;28;20022;-89
2021/05/25 12:12:01;;;;;;;5.80;2.00;;;16.70;58.20;;;;;;5001128;28;20029;-89
2021/05/25 12:14:29;;;;;;;3.38;1.10;;;17.10;55.30;;;;;;4998946;28;20433;-87
2021/05/25 12:17:08;;;;;;;5.07;1.42;;;17.30;55.10;;;;;;4983500;28;20046;-86
2021/05/25 12:19:33;;;;;;;6.28;1.15;;;17.50;53.20;;;;;;4999350;28;20134;-85
2021/05/25 12:22:01;;;;;;;4.78;2.00;;;17.60;54.70;;;;;;4999380;28;20429;-84
2021/05/25 12:24:28;;;;;;;4.47;1.23;;;17.60;50.80;;;;;;4997742;28;20029;-83
2021/05/25 12:26:55;;;;;;;4.50;0.93;;;17.60;52.60;;;;;;4997780;28;20032;-81
2021/05/25 12:29:23;;;;;;;4.95;1.20;;;17.30;51.60;;;;;;4997758;28;20030;-81
2021/05/25 12:31:49;;;;;;;4.63;1.67;;;17.00;54.60;;;;;;4997391;28;20041;-82
2021/05/25 12:34:18;;;;;;;8.57;1.80;;;16.70;53.20;;;;;;4996307;28;20528;-81
2021/05/25 12:36:52;;;;;;;5.72;1.30;;;16.30;53.30;;;;;;4995918;28;20021;-82
2021/05/25 12:39:30;;;;;;;6.05;1.13;;;16.00;55.20;;;;;;5014179;28;20022;-81
2021/05/25 12:41:56;;;;;;;3.50;1.00;;;15.90;55.90;;;;;;4998244;28;20030;-80
2021/05/25 12:44:29;;;;;;;3.83;1.17;;;15.70;56.30;;;;;;4996573;28;20018;-81
2021/05/25 12:47:05;;;;;;;4.70;1.20;;;15.40;56.50;;;;;;4997148;28;20026;-79
2021/05/25 12:49:43;;;;;;;3.60;1.13;;;15.20;57.10;;;;;;4996886;28;20084;-80
2021/05/25 12:52:23;;;;;;;7.97;1.35;;;15.00;59.10;;;;;;4997446;28;20026;-82
2021/05/25 12:55:01;;;;;;;5.43;1.17;;;14.90;59.10;;;;;;4999063;28;20030;-81
2021/05/25 12:57:47;;;;;;;5.00;1.27;;;14.90;60.50;;;;;;4996859;28;20064;-82
2021/05/25 13:00:15;;;;;;;4.32;0.80;;;15.00;59.40;;;;;;4997348;28;20033;-80
2021/05/25 13:02:48;;;;;;;4.55;1.10;;;15.30;56.70;;;;;;4996782;28;20078;-77